Grande Prairie Airport
CYQU : now visible

Airfield :











YOU CAN JOIN US ON...

 
LOGIN :

Register | Disclaimer

   EN    FR    IT 

 









Legend :    VFR   Marginal VFR   IFR   Intensive IFR   Very Intensive IFR
Visi :
Ceiling :
>= 8 km
>= 3000ft
5 to 8 km
1000 to 3000 ft
1500m to 5 km
500 to 1000 ft
800 to 1500m
200 to 500 ft
< 800m
< 200 ft
Symbols :   Thunderstorms  Fog  Heavy snow  Heavy precipitations  Wind > 20 kt






- Airport Elevation : 2195 ft
- IATA code : YQU


CYQU - Grande Prairie

CURRENT METAR :
  • 281340Z 00000KT 2SM BR SCT001 SCT060 M19/M21 A2981 RMK ST3SC1 SLP144

EXPIRED METARs :
  • 281325Z 19005KT 5SM BR BKN003 M18/M20 A2982 RMK SC5 SLP147
  • 281300Z 00000KT 25SM FEW001 FEW020 M19/M21 A2981 RMK ST1SC1 ST TR BR SLP147
  • 281242Z 35004KT 25SM FEW001 FEW020 M17/M19 A2981 RMK ST1SC1 BR ST LYR S SLP145
  • 281200Z 31007KT 25SM SKC M16/M17 A2980 RMK SLP140
  • 281100Z 32004KT 25SM FEW150 M18/M19 A2979 RMK AC1 AC TR SLP143

TAF AMD TAF CYQU
Valid from the 28 at 13:00 until the 29 at 01:00 UTC


281336Z 2813/2901 VRB03KT P6SM FEW200
TEMPO 2813/2816 2SM BR BKN003
PROB30 2813/2816 1/4SM FZFG VV001 RMK NXT FCST BY 281900Z



MET'MAP, your aeronautical weather chart ! - Copyright ORBIFLY December 2007 - Disclaimer

ORBIFLY MET'MAP TEAM :

Programming & Development : Alexandra Zaïnal
Concept & original design : Baudouin d'Aumeries
Assistance for programming : Marc-Olivier Méhu
Technical & hardware support : Manuel Goepfert

Contact : metmap@orbifly.com




SOURCES & CREDITS :

   NOAA       Earth
Advisory